Current Weather



TAF Data Links

METAR Data Links

Latest METAR/TAF Data


Available data for KAUS from the past 2 hours
AUSTIN, TX
Metar
KAUS 171853Z 32007KT 9SM OVC004 12/11 A3018 RMK AO2 SLP218 T01220106

18:53 UTC

Wind: 320° 7kt

Visibility: 9 SM

Sky: OVC 400 ft

Temp: 12 deg C / 53.6 deg F

Dewpoint: 11 deg C / 51.8 deg F

Pressure: 30.18 inHg

TAF
KAUS 171730Z 1718/1824 31004KT 6SM -SHRA BKN005 OVC020 FM171900 16009KT P6SM VCSH OVC012 FM172300 16008KT P6SM BKN035 FM180400 18006KT P6SM OVC012 FM180900 19005KT 3SM BR VCSH OVC009 TEMPO 1809/1812 1/2SM FG OVC004 FM181600 01012KT P6SM VCSH OVC035 FM181900 02012KT P6SM FEW250
Pirep (1)
AUS UA /OV 1S/TM 1756/FL003/TP A320/SK OVC003


Available data for KEDC from the past 2 hours
AUSTIN EXEC, TX
Metar
KEDC 171855Z AUTO 02004KT 10SM OVC005 12/12 A3019 RMK AO2

18:55 UTC

Wind: 20° 4kt

Visibility: 10 SM

Sky: OVC 500 ft

Temp: 12 deg C / 53.6 deg F

Dewpoint: 12 deg C / 53.6 deg F

Pressure: 30.19 inHg

Pirep (1)
AUS UA /OV 1S/TM 1756/FL003/TP A320/SK OVC003


Available data for KRYW from the past 2 hours
LAGO VISTA, TX
Metar
KRYW 171855Z AUTO 06003KT M1/4SM FG OVC002 09/09 A3018 RMK AO2 T00930093

18:55 UTC

Wind: 60° 3kt

Visibility: 0.25 SM

Sky: OVC 200 ft

Temp: 9 deg C / 48.2 deg F

Dewpoint: 9 deg C / 48.2 deg F

Pressure: 30.18 inHg

Pirep (1)
AUS UA /OV 1S/TM 1756/FL003/TP A320/SK OVC003